createdAt,value
2023-06-10T00:00:14.116Z,23.07
2023-06-10T00:02:40.948Z,23.06
2023-06-10T00:05:08.586Z,23.04
2023-06-10T00:07:35.505Z,23.03
2023-06-10T00:10:02.060Z,23.00
2023-06-10T00:12:28.597Z,22.95
2023-06-10T00:14:55.129Z,22.93
2023-06-10T00:17:22.989Z,22.91
2023-06-10T00:19:49.565Z,22.88
2023-06-10T00:22:16.246Z,22.87
2023-06-10T00:24:42.882Z,22.84
2023-06-10T00:27:09.472Z,22.81
2023-06-10T00:29:36.128Z,22.78
2023-06-10T00:32:03.250Z,22.73
2023-06-10T00:34:31.411Z,22.69
2023-06-10T00:36:57.967Z,22.62
2023-06-10T00:39:24.665Z,22.55
2023-06-10T00:41:51.190Z,22.50
2023-06-10T00:44:17.788Z,22.49
2023-06-10T00:46:44.730Z,22.44
2023-06-10T00:49:11.909Z,22.41
2023-06-10T00:51:40.343Z,22.38
2023-06-10T00:54:07.999Z,22.31
2023-06-10T00:56:34.817Z,22.24
2023-06-10T00:59:01.409Z,22.19
2023-06-10T01:01:28.028Z,22.10
2023-06-10T01:03:54.578Z,22.02
2023-06-10T01:06:35.245Z,21.94
2023-06-10T01:09:13.894Z,21.85
2023-06-10T01:11:47.650Z,21.79
2023-06-10T01:14:14.809Z,21.76
2023-06-10T01:16:41.375Z,21.69
2023-06-10T01:19:07.989Z,21.65
2023-06-10T01:21:38.581Z,21.57
2023-06-10T01:24:06.029Z,21.55
2023-06-10T01:26:35.227Z,21.51
2023-06-10T01:29:12.434Z,21.40
2023-06-10T01:31:43.967Z,21.36
2023-06-10T01:34:13.809Z,21.29
2023-06-10T01:36:45.448Z,21.24
2023-06-10T01:39:12.970Z,21.19
2023-06-10T01:41:40.898Z,21.13
2023-06-10T01:44:07.491Z,21.06
2023-06-10T01:46:34.054Z,20.99
2023-06-10T01:49:00.560Z,20.97
2023-06-10T01:51:27.149Z,20.93
2023-06-10T01:53:55.015Z,20.86
2023-06-10T01:56:21.560Z,20.81
2023-06-10T01:58:48.218Z,20.71
2023-06-10T02:01:15.494Z,20.67
2023-06-10T02:03:42.209Z,20.64
2023-06-10T02:06:08.869Z,20.63
2023-06-10T02:08:35.428Z,20.59
2023-06-10T02:11:03.295Z,20.54
2023-06-10T02:13:29.835Z,20.51
2023-06-10T02:15:56.505Z,20.40
2023-06-10T02:18:23.113Z,20.38
2023-06-10T02:20:50.045Z,20.30
2023-06-10T02:23:16.628Z,20.27
2023-06-10T02:25:43.215Z,20.24
2023-06-10T02:28:11.119Z,20.22
2023-06-10T02:30:40.280Z,20.18
2023-06-10T02:33:06.810Z,20.17
2023-06-10T02:35:33.371Z,20.11
2023-06-10T02:37:59.917Z,20.07
2023-06-10T02:40:26.421Z,20.03
2023-06-10T02:42:52.930Z,20.02
2023-06-10T02:45:20.844Z,19.99
2023-06-10T02:47:47.418Z,19.96
2023-06-10T02:50:13.978Z,19.93
2023-06-10T02:52:40.556Z,19.94
2023-06-10T02:55:07.857Z,19.89
2023-06-10T02:57:34.697Z,19.84
2023-06-10T03:00:01.262Z,19.80
2023-06-10T03:02:29.175Z,19.78
2023-06-10T03:04:56.116Z,19.79
2023-06-10T03:07:22.703Z,19.73
2023-06-10T03:09:49.265Z,19.69
2023-06-10T03:12:15.965Z,19.61
2023-06-10T03:14:42.579Z,19.59
2023-06-10T03:17:09.152Z,19.60
2023-06-10T03:19:37.084Z,19.53
2023-06-10T03:22:11.241Z,19.48
2023-06-10T03:24:38.197Z,19.45
2023-06-10T03:27:05.517Z,19.38
2023-06-10T03:29:32.081Z,19.36
2023-06-10T03:31:58.627Z,19.37
2023-06-10T03:34:25.209Z,19.36
2023-06-10T03:36:53.102Z,19.38
2023-06-10T03:39:19.653Z,19.34
2023-06-10T03:41:46.248Z,19.34
2023-06-10T03:44:12.949Z,19.31
2023-06-10T03:46:39.541Z,19.29
2023-06-10T03:49:06.136Z,19.28
2023-06-10T03:51:32.697Z,19.26
2023-06-10T03:54:00.618Z,19.29
2023-06-10T03:56:27.182Z,19.25
2023-06-10T03:58:53.806Z,19.27
2023-06-10T04:01:20.396Z,19.26
2023-06-10T04:03:46.912Z,19.26
2023-06-10T04:06:14.645Z,19.27
2023-06-10T04:08:41.224Z,19.25
2023-06-10T04:11:09.182Z,19.25
2023-06-10T04:13:35.775Z,19.22
2023-06-10T04:16:02.305Z,19.19
2023-06-10T04:18:28.838Z,19.21
2023-06-10T04:20:55.563Z,19.26
2023-06-10T04:23:22.210Z,19.23
2023-06-10T04:25:48.748Z,19.24
2023-06-10T04:28:16.743Z,19.26
2023-06-10T04:30:43.338Z,19.30
2023-06-10T04:33:09.938Z,19.30
2023-06-10T04:35:36.602Z,19.33
2023-06-10T04:38:03.142Z,19.30
2023-06-10T04:40:29.708Z,19.33
2023-06-10T04:42:56.363Z,19.36
2023-06-10T04:45:24.270Z,19.38
2023-06-10T04:47:50.912Z,19.40
2023-06-10T04:50:17.493Z,19.43
2023-06-10T04:52:44.037Z,19.45
2023-06-10T04:55:10.896Z,19.50
2023-06-10T04:57:37.672Z,19.53
2023-06-10T05:00:05.220Z,19.57
2023-06-10T05:02:33.153Z,19.60
2023-06-10T05:04:59.895Z,19.65
2023-06-10T05:07:26.525Z,19.64
2023-06-10T05:09:53.070Z,19.70
2023-06-10T05:12:19.579Z,19.72
2023-06-10T05:14:46.193Z,19.72
2023-06-10T05:17:12.758Z,19.78
2023-06-10T05:19:40.714Z,19.82
2023-06-10T05:22:07.412Z,19.87
2023-06-10T05:24:33.954Z,19.90
2023-06-10T05:27:00.864Z,19.91
2023-06-10T05:29:27.457Z,19.95
2023-06-10T05:31:54.025Z,20.02
2023-06-10T05:34:20.632Z,20.06
2023-06-10T05:36:48.557Z,20.11
2023-06-10T05:39:15.111Z,20.10
2023-06-10T05:41:41.675Z,20.16
2023-06-10T05:44:08.195Z,20.17
2023-06-10T05:46:35.171Z,20.26
2023-06-10T05:49:01.796Z,20.30
2023-06-10T05:51:28.388Z,20.35
2023-06-10T05:53:56.354Z,20.39
2023-06-10T05:56:22.980Z,20.46
2023-06-10T05:58:49.679Z,20.53
2023-06-10T06:01:16.497Z,20.60
2023-06-10T06:03:43.254Z,20.65
2023-06-10T06:06:09.988Z,20.69
2023-06-10T06:08:36.551Z,20.79
2023-06-10T06:11:04.502Z,20.87
2023-06-10T06:13:31.074Z,20.90
2023-06-10T06:15:57.662Z,20.96
2023-06-10T06:18:24.211Z,20.99
2023-06-10T06:20:50.847Z,21.07
2023-06-10T06:23:17.435Z,21.16
2023-06-10T06:25:43.970Z,21.20
2023-06-10T06:28:11.857Z,21.27
2023-06-10T06:30:38.444Z,21.33
2023-06-10T06:33:05.065Z,21.40
2023-06-10T06:35:32.032Z,21.48
2023-06-10T06:37:58.650Z,21.54
2023-06-10T06:40:25.376Z,21.58
2023-06-10T06:42:51.905Z,21.65
2023-06-10T06:45:19.831Z,21.69
2023-06-10T06:47:46.459Z,21.72
2023-06-10T06:50:13.056Z,21.79
2023-06-10T06:52:39.658Z,21.86
2023-06-10T06:55:07.272Z,21.95
2023-06-10T06:57:33.948Z,22.03
2023-06-10T07:00:00.548Z,22.11
2023-06-10T07:02:28.427Z,22.19
2023-06-10T07:04:54.975Z,22.20
2023-06-10T07:07:21.613Z,22.24
2023-06-10T07:09:48.169Z,22.27
2023-06-10T07:12:14.691Z,22.34
2023-06-10T07:14:41.256Z,22.39
2023-06-10T07:17:08.026Z,22.47
2023-06-10T07:19:35.960Z,22.56
2023-06-10T07:22:02.558Z,22.62
2023-06-10T07:24:29.133Z,22.72
2023-06-10T07:26:55.679Z,22.82
2023-06-10T07:29:22.215Z,22.90
2023-06-10T07:31:48.797Z,22.97
2023-06-10T07:34:15.315Z,23.03
2023-06-10T07:36:43.235Z,23.10
2023-06-10T07:39:09.777Z,23.18
2023-06-10T07:41:36.345Z,23.28
2023-06-10T07:44:03.690Z,23.39
2023-06-10T07:46:30.410Z,23.41
2023-06-10T07:48:56.962Z,23.50
2023-06-10T07:51:23.529Z,23.59
2023-06-10T07:53:51.465Z,23.65
2023-06-10T07:56:18.074Z,23.74
2023-06-10T07:58:44.693Z,23.90
2023-06-10T08:01:11.232Z,23.99
2023-06-10T08:03:37.836Z,24.03
2023-06-10T08:06:04.763Z,24.10
2023-06-10T08:08:31.273Z,24.21
2023-06-10T08:10:59.173Z,24.38
2023-06-10T08:13:25.731Z,24.52
2023-06-10T08:15:52.258Z,24.66
2023-06-10T08:18:18.791Z,24.79
2023-06-10T08:20:45.357Z,24.91
2023-06-10T08:23:11.895Z,24.99
2023-06-10T08:25:38.435Z,25.07
2023-06-10T08:28:06.480Z,25.15
2023-06-10T08:30:33.039Z,25.21
2023-06-10T08:33:00.573Z,25.31
2023-06-10T08:35:27.190Z,25.42
2023-06-10T08:37:53.788Z,25.43
2023-06-10T08:40:20.407Z,25.49
2023-06-10T08:42:53.585Z,25.63
2023-06-10T08:45:24.436Z,25.69
2023-06-10T08:47:51.846Z,25.73
2023-06-10T08:50:19.674Z,25.83
2023-06-10T08:52:49.396Z,25.93
2023-06-10T08:55:19.594Z,26.07
2023-06-10T08:57:46.706Z,26.22
2023-06-10T09:00:14.685Z,26.31
2023-06-10T09:02:44.007Z,26.43
2023-06-10T09:05:11.429Z,26.56
2023-06-10T09:07:38.573Z,26.57
2023-06-10T09:10:06.624Z,26.60
2023-06-10T09:12:35.257Z,26.68
2023-06-10T09:15:03.591Z,26.79
2023-06-10T09:17:30.857Z,26.86
2023-06-10T09:20:00.125Z,26.83
2023-06-10T09:22:26.671Z,26.79
2023-06-10T09:25:02.535Z,26.77
2023-06-10T09:27:31.166Z,26.78
2023-06-10T09:29:57.726Z,26.76
2023-06-10T09:32:25.114Z,26.76
2023-06-10T09:34:51.740Z,26.82
2023-06-10T09:37:22.552Z,26.97
2023-06-10T09:40:03.564Z,27.12
2023-06-10T09:42:33.539Z,27.15
2023-06-10T09:45:00.078Z,27.22
2023-06-10T09:47:26.651Z,27.35
2023-06-10T09:49:53.201Z,27.54
2023-06-10T09:52:24.090Z,27.66
2023-06-10T09:54:51.324Z,27.69
2023-06-10T09:57:18.679Z,27.84
2023-06-10T09:59:47.982Z,27.85
2023-06-10T10:02:15.893Z,27.93
2023-06-10T10:04:42.578Z,28.07
2023-06-10T10:07:09.659Z,28.05
2023-06-10T10:09:38.045Z,28.01
2023-06-10T10:12:09.961Z,27.97
2023-06-10T10:14:37.444Z,27.98
2023-06-10T10:17:08.487Z,28.01
2023-06-10T10:19:41.091Z,28.10
2023-06-10T10:22:11.657Z,28.28
2023-06-10T10:24:42.581Z,28.44
2023-06-10T10:27:18.416Z,28.60
2023-06-10T10:29:48.510Z,28.76
2023-06-10T10:32:17.198Z,28.86
2023-06-10T10:34:50.489Z,28.96
2023-06-10T10:37:18.509Z,28.96
2023-06-10T10:39:46.584Z,28.98
2023-06-10T10:42:14.117Z,29.01
2023-06-10T10:44:41.767Z,29.18
2023-06-10T10:47:10.035Z,29.20
2023-06-10T10:49:37.995Z,29.25
2023-06-10T10:52:05.519Z,29.37
2023-06-10T10:54:33.687Z,29.54
2023-06-10T10:57:18.327Z,29.62
2023-06-10T10:59:46.662Z,29.64
2023-06-10T11:02:17.304Z,29.60
2023-06-10T11:04:47.126Z,29.71
2023-06-10T11:07:14.434Z,29.72
2023-06-10T11:09:58.917Z,29.69
2023-06-10T11:12:27.147Z,29.73
2023-06-10T11:14:55.632Z,29.78
2023-06-10T11:17:22.418Z,29.89
2023-06-10T11:19:49.009Z,30.09
2023-06-10T11:22:18.173Z,30.32
2023-06-10T11:24:48.905Z,30.46
2023-06-10T11:27:16.649Z,30.55
2023-06-10T11:29:58.311Z,30.68
2023-06-10T11:32:30.076Z,30.76
2023-06-10T11:34:57.136Z,30.91
2023-06-10T11:37:23.728Z,31.04
2023-06-10T11:39:52.869Z,31.18
2023-06-10T11:42:20.177Z,31.13
2023-06-10T11:44:49.673Z,31.10
2023-06-10T11:47:17.708Z,31.20
2023-06-10T11:49:46.450Z,31.32
2023-06-10T11:52:14.628Z,31.37
2023-06-10T11:54:41.193Z,31.28
2023-06-10T11:57:07.785Z,31.15
2023-06-10T11:59:34.462Z,31.18
2023-06-10T12:02:01.064Z,31.33
2023-06-10T12:04:28.909Z,31.42
2023-06-10T12:06:56.300Z,31.47
2023-06-10T12:09:26.994Z,31.51
2023-06-10T12:11:57.840Z,31.42
2023-06-10T12:14:53.004Z,31.36
2023-06-10T12:17:19.737Z,31.33
2023-06-10T12:19:47.645Z,31.49
2023-06-10T12:22:14.763Z,31.74
2023-06-10T12:24:45.188Z,31.81
2023-06-10T12:27:12.452Z,31.91
2023-06-10T12:29:39.026Z,31.99
2023-06-10T12:32:06.468Z,32.09
2023-06-10T12:34:35.459Z,32.14
2023-06-10T12:37:04.161Z,32.28
2023-06-10T12:39:31.492Z,32.30
2023-06-10T12:41:58.454Z,32.39
2023-06-10T12:44:34.969Z,32.48
2023-06-10T12:47:01.873Z,32.54
2023-06-10T12:49:28.452Z,32.60
2023-06-10T12:51:55.117Z,32.54
2023-06-10T12:54:23.039Z,32.50
2023-06-10T12:56:49.661Z,32.54
2023-06-10T12:59:16.202Z,32.50
2023-06-10T13:01:42.848Z,32.44
2023-06-10T13:04:09.445Z,32.38
2023-06-10T13:06:36.011Z,32.40
2023-06-10T13:09:02.763Z,32.44
2023-06-10T13:11:30.681Z,32.53
2023-06-10T13:13:57.257Z,32.55
2023-06-10T13:16:23.867Z,32.47
2023-06-10T13:18:50.498Z,32.44
2023-06-10T13:21:17.015Z,32.42
2023-06-10T13:23:45.270Z,32.32
2023-06-10T13:26:11.855Z,32.01
2023-06-10T13:28:39.766Z,31.80
2023-06-10T13:31:06.367Z,31.80
2023-06-10T13:33:32.940Z,31.80
2023-06-10T13:35:59.502Z,31.82
2023-06-10T13:38:26.067Z,31.59
2023-06-10T13:40:52.601Z,31.28
2023-06-10T13:43:19.135Z,31.23
2023-06-10T13:45:47.008Z,31.33
2023-06-10T13:48:13.645Z,31.51
2023-06-10T13:50:40.230Z,31.60
2023-06-10T13:53:06.809Z,31.65
2023-06-10T13:55:33.368Z,31.60
2023-06-10T13:57:59.895Z,31.48
2023-06-10T14:00:26.418Z,31.45
2023-06-10T14:02:54.394Z,31.40
2023-06-10T14:05:20.991Z,31.25
2023-06-10T14:07:47.499Z,31.09
2023-06-10T14:10:14.012Z,31.02
2023-06-10T14:12:40.570Z,30.91
2023-06-10T14:15:08.573Z,30.87
2023-06-10T14:17:35.392Z,30.96
2023-06-10T14:20:03.656Z,31.08
2023-06-10T14:22:30.274Z,31.21
2023-06-10T14:24:56.846Z,31.31
2023-06-10T14:27:23.399Z,31.49
2023-06-10T14:29:49.959Z,31.59
2023-06-10T14:32:16.636Z,31.65
2023-06-10T14:34:43.260Z,31.54
2023-06-10T14:37:11.251Z,31.34
2023-06-10T14:39:37.781Z,31.25
2023-06-10T14:42:04.984Z,31.25
2023-06-10T14:44:31.515Z,31.28
2023-06-10T14:46:58.079Z,31.29
2023-06-10T14:49:24.582Z,31.33
2023-06-10T14:51:51.191Z,31.39
2023-06-10T14:54:19.074Z,31.46
2023-06-10T14:56:45.610Z,31.53
2023-06-10T14:59:12.216Z,31.55
2023-06-10T15:01:38.978Z,31.57
2023-06-10T15:04:05.605Z,31.45
2023-06-10T15:06:32.179Z,31.39
2023-06-10T15:08:58.738Z,31.29
2023-06-10T15:11:26.619Z,31.18
2023-06-10T15:13:53.176Z,31.01
2023-06-10T15:16:19.799Z,30.86
2023-06-10T15:18:46.346Z,30.84
2023-06-10T15:21:12.869Z,30.80
2023-06-10T15:23:39.426Z,30.69
2023-06-10T15:26:06.111Z,30.67
2023-06-10T15:28:33.966Z,30.61
2023-06-10T15:31:00.597Z,30.59
2023-06-10T15:33:27.166Z,30.51
2023-06-10T15:35:53.737Z,30.44
2023-06-10T15:38:20.358Z,30.42
2023-06-10T15:40:46.887Z,30.44
2023-06-10T15:43:13.492Z,30.45
2023-06-10T15:45:41.467Z,30.50
2023-06-10T15:48:08.145Z,30.56
2023-06-10T15:50:34.744Z,30.58
2023-06-10T15:53:01.257Z,30.61
2023-06-10T15:55:27.788Z,30.61
2023-06-10T15:57:54.317Z,30.63
2023-06-10T16:00:21.262Z,30.67
2023-06-10T16:02:49.271Z,30.67
2023-06-10T16:05:16.113Z,30.65
2023-06-10T16:07:43.035Z,30.64
2023-06-10T16:10:10.125Z,30.64
2023-06-10T16:12:36.682Z,30.66
2023-06-10T16:15:03.372Z,30.72
2023-06-10T16:17:30.143Z,30.74
2023-06-10T16:19:58.033Z,30.76
2023-06-10T16:22:24.643Z,30.83
2023-06-10T16:24:51.182Z,30.89
2023-06-10T16:27:17.767Z,30.93
2023-06-10T16:29:44.284Z,30.93
2023-06-10T16:32:10.861Z,30.84
2023-06-10T16:34:37.432Z,30.75
2023-06-10T16:37:05.358Z,30.65
2023-06-10T16:39:31.953Z,30.64
2023-06-10T16:41:58.535Z,30.58
2023-06-10T16:44:25.405Z,30.51
2023-06-10T16:46:52.021Z,30.44
2023-06-10T16:49:18.620Z,30.37
2023-06-10T16:51:45.211Z,30.36
2023-06-10T16:54:13.413Z,30.38
2023-06-10T16:56:39.970Z,30.38
2023-06-10T16:59:06.545Z,30.42
2023-06-10T17:01:33.172Z,30.47
2023-06-10T17:03:59.754Z,30.53
2023-06-10T17:06:26.285Z,30.57
2023-06-10T17:08:52.851Z,30.58
2023-06-10T17:11:20.684Z,30.62
2023-06-10T17:13:47.314Z,30.82
2023-06-10T17:16:13.958Z,31.19
2023-06-10T17:18:40.701Z,31.34
2023-06-10T17:21:07.384Z,31.31
2023-06-10T17:23:34.100Z,31.17
2023-06-10T17:26:00.681Z,30.92
2023-06-10T17:28:28.594Z,30.79
2023-06-10T17:30:55.402Z,30.64
2023-06-10T17:33:22.001Z,30.53
2023-06-10T17:35:48.645Z,30.35
2023-06-10T17:38:15.331Z,30.27
2023-06-10T17:40:42.127Z,30.13
2023-06-10T17:43:08.689Z,30.00
2023-06-10T17:45:36.596Z,29.91
2023-06-10T17:48:03.510Z,29.79
2023-06-10T17:50:30.208Z,29.71
2023-06-10T17:52:56.758Z,29.66
2023-06-10T17:55:23.394Z,29.62
2023-06-10T17:57:50.176Z,29.50
2023-06-10T18:00:17.383Z,29.44
2023-06-10T18:02:45.441Z,29.41
2023-06-10T18:05:12.463Z,29.27
2023-06-10T18:07:39.232Z,29.25
2023-06-10T18:10:06.823Z,29.20
2023-06-10T18:12:33.455Z,29.13
2023-06-10T18:15:00.050Z,29.11
2023-06-10T18:17:26.660Z,29.06
2023-06-10T18:19:54.495Z,28.98
2023-06-10T18:22:21.082Z,28.89
2023-06-10T18:24:47.695Z,28.86
2023-06-10T18:27:16.601Z,28.81
2023-06-10T18:29:43.696Z,28.77
2023-06-10T18:32:10.591Z,28.72
2023-06-10T18:34:37.493Z,28.69
2023-06-10T18:37:08.144Z,28.63
2023-06-10T18:39:35.946Z,28.59
2023-06-10T18:42:02.733Z,28.57
2023-06-10T18:44:29.353Z,28.53
2023-06-10T18:46:56.033Z,28.41
2023-06-10T18:49:22.571Z,28.36
2023-06-10T18:51:49.099Z,28.29
2023-06-10T18:54:17.091Z,28.24
2023-06-10T18:56:43.635Z,28.22
2023-06-10T18:59:10.166Z,28.38
2023-06-10T19:01:36.806Z,28.51
2023-06-10T19:04:03.616Z,28.66
2023-06-10T19:06:30.228Z,28.75
2023-06-10T19:08:56.771Z,28.80
2023-06-10T19:11:24.654Z,28.81
2023-06-10T19:13:51.206Z,28.70
2023-06-10T19:16:17.860Z,28.61
2023-06-10T19:18:44.430Z,28.56
2023-06-10T19:21:11.072Z,28.42
2023-06-10T19:23:37.687Z,28.29
2023-06-10T19:26:04.301Z,28.20
2023-06-10T19:28:32.286Z,28.09
2023-06-10T19:30:58.892Z,27.97
2023-06-10T19:33:25.398Z,27.87
2023-06-10T19:35:52.004Z,27.72
2023-06-10T19:38:19.046Z,27.60
2023-06-10T19:40:45.604Z,27.45
2023-06-10T19:43:12.134Z,27.34
2023-06-10T19:45:40.012Z,27.23
2023-06-10T19:48:08.591Z,27.13
2023-06-10T19:50:36.840Z,27.03
2023-06-10T19:53:03.386Z,26.92
2023-06-10T19:55:29.957Z,26.83
2023-06-10T19:57:56.529Z,26.73
2023-06-10T20:00:23.157Z,26.65
2023-06-10T20:02:51.091Z,26.56
2023-06-10T20:05:17.654Z,26.48
2023-06-10T20:07:44.371Z,26.40
2023-06-10T20:10:10.981Z,26.36
2023-06-10T20:12:37.521Z,26.30
2023-06-10T20:15:04.747Z,26.21
2023-06-10T20:17:31.312Z,26.14
2023-06-10T20:19:59.240Z,26.03
2023-06-10T20:22:25.771Z,25.94
2023-06-10T20:24:52.494Z,25.90
2023-06-10T20:27:19.272Z,25.79
2023-06-10T20:29:45.964Z,25.76
2023-06-10T20:32:12.689Z,25.70
2023-06-10T20:34:39.261Z,25.65
2023-06-10T20:37:07.256Z,25.64
2023-06-10T20:39:33.874Z,25.57
2023-06-10T20:42:00.454Z,25.53
2023-06-10T20:44:26.971Z,25.46
2023-06-10T20:46:53.534Z,25.42
2023-06-10T20:49:20.115Z,25.37
2023-06-10T20:51:46.659Z,25.33
2023-06-10T20:54:14.537Z,25.32
2023-06-10T20:56:41.085Z,25.25
2023-06-10T20:59:07.642Z,25.19
2023-06-10T21:01:34.440Z,25.15
2023-06-10T21:04:01.144Z,25.10
2023-06-10T21:06:27.739Z,25.09
2023-06-10T21:08:54.327Z,25.06
2023-06-10T21:11:22.246Z,25.02
2023-06-10T21:13:48.833Z,24.98
2023-06-10T21:16:15.455Z,24.92
2023-06-10T21:18:42.117Z,24.89
2023-06-10T21:21:08.905Z,24.87
2023-06-10T21:23:35.482Z,24.84
2023-06-10T21:26:02.116Z,24.79
2023-06-10T21:28:30.018Z,24.74
2023-06-10T21:30:56.597Z,24.71
2023-06-10T21:33:23.151Z,24.66
2023-06-10T21:35:49.797Z,24.62
2023-06-10T21:38:16.416Z,24.57
2023-06-10T21:40:42.935Z,24.49
2023-06-10T21:43:09.509Z,24.45
2023-06-10T21:45:37.398Z,24.40
2023-06-10T21:48:04.028Z,24.38
2023-06-10T21:50:30.580Z,24.36
2023-06-10T21:52:59.535Z,24.28
2023-06-10T21:55:27.751Z,24.26
2023-06-10T21:57:54.367Z,24.22
2023-06-10T22:00:20.970Z,24.20
2023-06-10T22:02:48.995Z,24.13
2023-06-10T22:05:15.625Z,24.11
2023-06-10T22:07:42.325Z,24.06
2023-06-10T22:10:09.389Z,24.02
2023-06-10T22:12:35.974Z,23.98
2023-06-10T22:15:02.547Z,23.95
2023-06-10T22:17:29.131Z,23.92
2023-06-10T22:19:57.240Z,23.90
2023-06-10T22:22:23.810Z,23.84
2023-06-10T22:24:55.305Z,23.83
2023-06-10T22:27:24.138Z,23.82
2023-06-10T22:29:51.124Z,23.78
2023-06-10T22:32:17.784Z,23.75
2023-06-10T22:34:44.383Z,23.72
2023-06-10T22:37:12.270Z,23.69
2023-06-10T22:39:38.848Z,23.63
2023-06-10T22:42:06.231Z,23.57
2023-06-10T22:44:32.769Z,23.51
2023-06-10T22:46:59.307Z,23.48
2023-06-10T22:49:25.831Z,23.39
2023-06-10T22:51:52.422Z,23.36
2023-06-10T22:54:20.356Z,23.34
2023-06-10T22:56:46.899Z,23.27
2023-06-10T22:59:13.476Z,23.24
2023-06-10T23:01:40.118Z,23.23
2023-06-10T23:04:06.738Z,23.22
2023-06-10T23:06:33.307Z,23.19
2023-06-10T23:08:59.924Z,23.17
2023-06-10T23:11:27.837Z,23.15
2023-06-10T23:13:54.365Z,23.07
2023-06-10T23:16:20.920Z,23.04
2023-06-10T23:18:47.475Z,23.01
2023-06-10T23:21:13.997Z,23.00
2023-06-10T23:23:40.520Z,22.98
2023-06-10T23:26:07.084Z,22.96
2023-06-10T23:28:35.013Z,22.91
2023-06-10T23:31:01.538Z,22.88
2023-06-10T23:33:28.291Z,22.83
2023-06-10T23:35:55.128Z,22.79
2023-06-10T23:38:21.668Z,22.75
2023-06-10T23:40:48.243Z,22.71
2023-06-10T23:43:14.854Z,22.69
2023-06-10T23:45:42.767Z,22.63
2023-06-10T23:48:09.576Z,22.61
2023-06-10T23:50:36.201Z,22.55
2023-06-10T23:53:03.109Z,22.49
2023-06-10T23:55:29.687Z,22.44
2023-06-10T23:57:57.377Z,22.44
